Time;durP1;ratioP1;P1;durP2;ratioP2;P2;SDS_P1;SDS_P2;PMS_P1;PMS_P2;Temp;Humidity;BMP_temperature;BMP_pressure;BME280_temperature;BME280_humidity;BME280_pressure;Samples;Min_cycle;Max_cycle;Signal;HPM_P1;HPM_P2
2023/08/02 08:19:40;;;;;;;3.20;2.20;;;21.20;99.90;;;;;;5645557;23;20291;-89
2023/08/02 08:22:08;;;;;;;7.60;2.23;;;21.20;99.90;;;;;;4925302;28;20484;-88
2023/08/02 08:24:35;;;;;;;4.63;2.43;;;21.30;99.90;;;;;;4917839;28;20485;-87
2023/08/02 08:27:02;;;;;;;1.95;1.70;;;21.30;99.90;;;;;;4922600;29;20459;-87
2023/08/02 08:29:29;;;;;;;2.25;2.05;;;21.30;99.90;;;;;;4921847;29;20206;-84
2023/08/02 08:31:56;;;;;;;8.32;1.70;;;21.30;99.90;;;;;;4914558;28;20218;-83
2023/08/02 08:34:23;;;;;;;1.80;1.63;;;21.30;99.90;;;;;;4923747;29;20214;-84
2023/08/02 08:36:49;;;;;;;2.03;1.83;;;21.40;99.90;;;;;;4923500;28;20467;-85
2023/08/02 08:39:18;;;;;;;3.57;2.30;;;21.40;99.90;;;;;;4919037;28;20972;-90
2023/08/02 08:41:46;;;;;;;2.70;2.50;;;21.40;99.90;;;;;;4922715;28;20470;-90
2023/08/02 08:44:13;;;;;;;5.67;2.93;;;21.40;99.90;;;;;;4921052;29;20483;-90
2023/08/02 08:46:41;;;;;;;4.27;1.93;;;21.40;99.90;;;;;;4918853;28;20865;-90
2023/08/02 08:49:08;;;;;;;2.27;1.50;;;21.40;99.90;;;;;;4916780;28;20466;-87
2023/08/02 08:51:36;;;;;;;2.17;1.50;;;21.40;99.90;;;;;;4923864;29;20463;-87
2023/08/02 08:54:06;;;;;;;2.30;1.90;;;21.50;99.90;;;;;;4925932;29;20809;-85
2023/08/02 08:56:39;;;;;;;2.73;1.60;;;21.50;99.90;;;;;;4924249;29;20467;-85
2023/08/02 08:59:07;;;;;;;3.43;2.47;;;21.50;99.90;;;;;;4923158;28;21053;-85
2023/08/02 09:01:34;;;;;;;2.97;2.40;;;21.50;99.90;;;;;;4925460;29;20457;-83
2023/08/02 09:04:01;;;;;;;2.40;1.83;;;21.60;99.90;;;;;;4926074;29;20725;-87
2023/08/02 09:06:28;;;;;;;2.43;2.00;;;21.60;99.90;;;;;;4925890;29;20470;-87
2023/08/02 09:08:55;;;;;;;2.10;1.80;;;21.60;99.90;;;;;;4922374;29;20453;-87
2023/08/02 09:11:22;;;;;;;3.30;2.60;;;21.70;99.90;;;;;;4924136;28;20508;-85
2023/08/02 09:14:08;;;;;;;3.10;2.10;;;21.70;99.90;;;;;;4921020;29;21395;-87
2023/08/02 09:16:35;;;;;;;1.73;1.53;;;21.70;99.90;;;;;;4926596;29;20476;-91
2023/08/02 09:19:02;;;;;;;2.63;1.87;;;21.70;99.90;;;;;;4919940;28;20493;-91
2023/08/02 09:21:29;;;;;;;2.37;1.80;;;21.80;99.90;;;;;;4924407;28;20465;-90
2023/08/02 09:23:58;;;;;;;2.60;2.20;;;21.80;99.90;;;;;;4925922;28;20531;-91
2023/08/02 09:26:25;;;;;;;1.87;1.60;;;21.80;99.90;;;;;;4924208;29;20853;-88
2023/08/02 09:29:01;;;;;;;2.73;1.93;;;21.80;99.90;;;;;;4926257;29;20458;-86
2023/08/02 09:31:28;;;;;;;2.90;2.20;;;21.90;99.90;;;;;;4929366;29;20953;-87
2023/08/02 09:33:55;;;;;;;2.60;1.80;;;21.90;99.90;;;;;;4926200;29;20462;-84
2023/08/02 09:36:24;;;;;;;5.00;2.33;;;21.90;99.90;;;;;;4922569;29;21038;-84
2023/08/02 09:39:01;;;;;;;3.87;2.17;;;21.90;99.90;;;;;;4923608;29;20478;-84
2023/08/02 09:41:28;;;;;;;2.07;1.60;;;22.00;99.90;;;;;;4925954;29;20463;-88
2023/08/02 09:43:55;;;;;;;3.60;2.27;;;22.00;99.90;;;;;;4927999;29;20589;-87
2023/08/02 09:46:29;;;;;;;2.27;1.97;;;22.00;99.90;;;;;;4924088;28;20478;-89
2023/08/02 09:48:56;;;;;;;2.47;2.10;;;22.00;99.90;;;;;;4924405;29;20791;-89
2023/08/02 09:51:37;;;;;;;1.97;1.53;;;22.00;99.90;;;;;;4922935;29;20463;-88
2023/08/02 09:54:04;;;;;;;4.03;2.27;;;22.00;99.90;;;;;;4920809;29;20462;-88
2023/08/02 09:56:31;;;;;;;3.40;1.83;;;22.10;99.90;;;;;;4923812;28;20479;-89
2023/08/02 09:58:59;;;;;;;2.00;1.80;;;22.10;99.90;;;;;;4926090;29;20459;-89
2023/08/02 10:01:28;;;;;;;3.53;2.37;;;22.10;99.90;;;;;;4925381;29;20462;-85
2023/08/02 10:03:58;;;;;;;1.93;1.73;;;22.10;99.90;;;;;;4926447;29;20483;-87
2023/08/02 10:06:30;;;;;;;1.83;1.60;;;22.10;99.90;;;;;;4929970;29;20470;-86
2023/08/02 10:09:04;;;;;;;1.83;1.60;;;22.10;99.90;;;;;;4928382;28;20470;-87
2023/08/02 10:11:33;;;;;;;2.27;2.07;;;22.20;99.90;;;;;;4928516;29;20487;-88
2023/08/02 10:14:01;;;;;;;1.70;1.53;;;22.20;99.90;;;;;;4930490;28;20944;-82
2023/08/02 10:16:30;;;;;;;2.07;1.87;;;22.20;99.90;;;;;;4926675;28;20479;-82
2023/08/02 10:18:59;;;;;;;3.00;1.77;;;22.20;99.90;;;;;;4927879;28;20481;-82
2023/08/02 10:21:26;;;;;;;3.93;1.83;;;22.30;99.90;;;;;;4928314;29;20487;-81
2023/08/02 10:23:53;;;;;;;4.80;2.50;;;22.30;99.90;;;;;;4931475;29;20493;-85
2023/08/02 10:26:20;;;;;;;2.40;1.70;;;22.30;99.90;;;;;;4930203;28;20463;-85
2023/08/02 10:28:48;;;;;;;3.27;1.63;;;22.30;99.90;;;;;;4931876;29;20466;-85
2023/08/02 10:31:15;;;;;;;2.60;1.97;;;22.30;99.90;;;;;;4932782;29;20961;-86
2023/08/02 10:33:43;;;;;;;2.13;1.63;;;22.30;99.90;;;;;;4930325;28;20848;-84
2023/08/02 10:36:10;;;;;;;2.80;2.20;;;22.40;99.90;;;;;;4932582;28;20463;-83
2023/08/02 10:38:52;;;;;;;2.20;1.63;;;22.40;99.90;;;;;;4934240;28;20467;-83
2023/08/02 10:41:21;;;;;;;1.77;1.67;;;22.40;99.90;;;;;;4929447;28;20470;-82
2023/08/02 10:44:14;;;;;;;2.47;1.40;;;22.40;99.90;;;;;;4932871;28;20576;-83
2023/08/02 10:46:41;;;;;;;2.43;1.80;;;22.50;99.90;;;;;;4924999;28;20474;-84
2023/08/02 10:49:38;;;;;;;4.40;2.13;;;22.50;99.90;;;;;;4935903;28;20457;-83
2023/08/02 10:52:25;;;;;;;2.50;2.30;;;22.50;99.90;;;;;;4928991;28;20466;-82
2023/08/02 10:55:09;;;;;;;2.27;2.00;;;22.50;99.90;;;;;;4933667;28;20925;-81
2023/08/02 10:57:37;;;;;;;2.13;1.80;;;22.50;99.90;;;;;;4931392;28;20838;-79
2023/08/02 11:00:23;;;;;;;2.50;1.90;;;22.50;99.90;;;;;;4928789;28;20467;-85
2023/08/02 11:02:51;;;;;;;2.33;1.87;;;22.50;99.90;;;;;;4931553;28;20474;-84
2023/08/02 11:05:39;;;;;;;3.87;2.03;;;22.50;99.90;;;;;;4931134;28;20497;-84
2023/08/02 11:08:07;;;;;;;4.83;1.67;;;22.60;99.90;;;;;;4930033;29;20467;-84
2023/08/02 11:10:34;;;;;;;3.10;1.67;;;22.60;99.90;;;;;;4930188;28;20462;-81
2023/08/02 11:13:01;;;;;;;2.60;1.70;;;22.60;99.90;;;;;;4929673;28;21015;-89
2023/08/02 11:15:28;;;;;;;5.73;2.23;;;22.60;99.90;;;;;;4933146;28;20462;-85
2023/08/02 11:17:56;;;;;;;1.70;1.40;;;22.60;99.90;;;;;;4932449;29;20470;-84
2023/08/02 11:20:28;;;;;;;3.30;1.80;;;22.60;99.90;;;;;;4929466;28;20541;-89
2023/08/02 11:22:56;;;;;;;4.70;1.93;;;22.60;99.90;;;;;;4931887;29;20469;-89
2023/08/02 11:25:23;;;;;;;2.13;1.53;;;22.60;99.90;;;;;;4933143;29;20489;-90
2023/08/02 11:28:01;;;;;;;3.27;1.70;;;22.60;99.90;;;;;;4932184;29;20990;-90
2023/08/02 11:30:28;;;;;;;2.13;1.93;;;22.60;99.90;;;;;;4930275;29;20547;-88
2023/08/02 11:32:55;;;;;;;1.67;1.57;;;22.60;99.90;;;;;;4933294;29;20477;-88
2023/08/02 11:35:22;;;;;;;1.70;1.53;;;22.70;99.90;;;;;;4931430;29;20472;-88
2023/08/02 11:37:51;;;;;;;1.40;1.30;;;22.70;99.90;;;;;;4933064;29;20467;-86
2023/08/02 11:40:19;;;;;;;2.10;1.93;;;22.70;99.90;;;;;;4933134;29;20468;-84
2023/08/02 11:42:48;;;;;;;2.37;1.63;;;22.70;99.90;;;;;;4928863;28;20891;-83
2023/08/02 11:45:15;;;;;;;2.03;1.60;;;22.70;99.90;;;;;;4927610;28;20489;-84
2023/08/02 11:47:42;;;;;;;1.97;1.50;;;22.70;99.90;;;;;;4932364;29;20479;-82
2023/08/02 11:50:09;;;;;;;2.83;1.53;;;22.70;99.90;;;;;;4931590;29;20653;-81
2023/08/02 11:52:36;;;;;;;1.70;1.60;;;22.70;99.90;;;;;;4931373;29;20467;-85
2023/08/02 11:55:03;;;;;;;3.00;2.00;;;22.70;99.90;;;;;;4930623;29;20478;-85
2023/08/02 11:57:31;;;;;;;2.57;1.70;;;22.70;99.90;;;;;;4928325;28;20479;-83
2023/08/02 11:59:59;;;;;;;1.67;1.53;;;22.80;99.90;;;;;;4932358;29;20462;-84
2023/08/02 12:02:27;;;;;;;1.83;1.70;;;22.80;99.90;;;;;;4934391;29;20501;-83
2023/08/02 12:04:56;;;;;;;2.40;1.83;;;22.80;99.90;;;;;;4931312;28;20475;-84
2023/08/02 12:07:27;;;;;;;2.03;1.83;;;22.80;99.90;;;;;;4928364;28;20966;-81
2023/08/02 12:09:54;;;;;;;1.60;1.47;;;22.80;99.90;;;;;;4931949;28;20508;-82
2023/08/02 12:12:21;;;;;;;1.50;1.40;;;22.80;99.90;;;;;;4929867;28;20468;-84
2023/08/02 12:14:49;;;;;;;1.60;1.50;;;22.80;99.90;;;;;;4927628;28;20944;-83
2023/08/02 12:17:20;;;;;;;2.70;1.83;;;22.80;99.90;;;;;;4933637;28;20786;-84
2023/08/02 12:19:47;;;;;;;2.10;1.90;;;22.80;99.90;;;;;;4931460;28;20493;-84
2023/08/02 12:22:15;;;;;;;1.87;1.70;;;22.80;99.90;;;;;;4930062;28;20464;-86
2023/08/02 12:24:42;;;;;;;3.60;2.00;;;22.80;99.90;;;;;;4929597;28;20481;-85
2023/08/02 12:27:14;;;;;;;2.90;1.40;;;22.80;99.90;;;;;;4929248;28;20459;-81
2023/08/02 12:29:41;;;;;;;2.50;1.30;;;22.80;99.90;;;;;;4936821;29;20466;-81
2023/08/02 12:32:10;;;;;;;1.57;1.30;;;22.90;99.90;;;;;;4930986;28;20609;-83
2023/08/02 12:34:37;;;;;;;1.70;1.53;;;22.90;99.90;;;;;;4936784;29;20973;-84
2023/08/02 12:37:05;;;;;;;2.70;1.40;;;22.90;99.90;;;;;;4936144;28;20856;-83
2023/08/02 12:39:32;;;;;;;1.80;1.33;;;22.90;99.90;;;;;;4935914;28;20465;-83
2023/08/02 12:41:58;;;;;;;5.20;1.53;;;22.90;99.90;;;;;;4927754;28;20465;-83
2023/08/02 12:44:25;;;;;;;1.40;1.30;;;22.90;99.90;;;;;;4932791;28;20694;-83
2023/08/02 12:46:52;;;;;;;1.50;1.10;;;22.90;99.90;;;;;;4927782;28;20474;-83
2023/08/02 12:49:20;;;;;;;1.60;1.27;;;22.90;99.90;;;;;;4930586;28;20466;-82
2023/08/02 12:51:47;;;;;;;1.70;1.00;;;22.90;99.90;;;;;;4929889;28;20462;-80
2023/08/02 12:54:13;;;;;;;2.70;1.40;;;22.90;99.90;;;;;;4929423;28;21015;-79
2023/08/02 12:56:40;;;;;;;1.63;1.50;;;22.90;99.90;;;;;;4928419;28;21077;-81
2023/08/02 12:59:07;;;;;;;2.20;1.00;;;22.90;99.90;;;;;;4929447;29;20465;-81
2023/08/02 13:01:34;;;;;;;3.07;1.40;;;22.90;99.90;;;;;;4928382;28;20818;-81
2023/08/02 13:04:01;;;;;;;1.20;1.10;;;22.90;99.90;;;;;;4927354;28;20531;-83
2023/08/02 13:06:29;;;;;;;1.93;1.30;;;22.90;99.90;;;;;;4922204;28;20841;-82
2023/08/02 13:08:56;;;;;;;2.07;1.10;;;22.90;99.90;;;;;;4926236;29;20938;-84
2023/08/02 13:11:22;;;;;;;1.47;1.10;;;22.90;99.90;;;;;;4925909;28;21067;-84
2023/08/02 13:13:49;;;;;;;1.90;1.47;;;22.90;99.90;;;;;;4926915;28;21787;-84
2023/08/02 13:16:16;;;;;;;2.90;1.07;;;22.90;99.90;;;;;;4928721;29;20455;-82
2023/08/02 13:18:43;;;;;;;2.10;1.07;;;22.90;99.90;;;;;;4926215;29;20494;-83
2023/08/02 13:21:10;;;;;;;1.60;1.30;;;22.90;99.90;;;;;;4926323;28;20830;-81
2023/08/02 13:23:38;;;;;;;1.40;1.10;;;22.90;99.90;;;;;;4929526;28;20474;-81
2023/08/02 13:26:05;;;;;;;2.17;1.10;;;23.00;99.90;;;;;;4926413;28;20480;-81
2023/08/02 13:28:31;;;;;;;3.00;0.97;;;23.00;99.90;;;;;;4926533;29;20939;-89
2023/08/02 13:30:59;;;;;;;1.30;1.00;;;23.00;99.90;;;;;;4929012;29;20465;-84
2023/08/02 13:33:26;;;;;;;1.80;1.10;;;23.00;99.90;;;;;;4929981;28;20464;-84
2023/08/02 13:35:53;;;;;;;3.20;0.80;;;23.00;99.90;;;;;;4928139;29;21042;-83
2023/08/02 13:38:19;;;;;;;1.30;1.03;;;23.00;99.90;;;;;;4927514;29;20471;-83
2023/08/02 13:40:50;;;;;;;3.93;0.90;;;23.00;99.90;;;;;;4928630;28;20972;-81
2023/08/02 13:43:16;;;;;;;1.20;0.80;;;23.00;99.90;;;;;;4927650;29;20463;-79
2023/08/02 13:45:44;;;;;;;3.00;0.97;;;23.10;99.90;;;;;;4929022;29;20490;-86
2023/08/02 13:48:11;;;;;;;1.80;0.80;;;23.10;99.90;;;;;;4927390;29;20909;-84
2023/08/02 13:50:38;;;;;;;1.37;0.83;;;23.10;99.90;;;;;;4927183;29;20559;-84
2023/08/02 13:53:05;;;;;;;2.10;0.90;;;23.10;99.90;;;;;;4926642;28;20471;-83
2023/08/02 13:55:32;;;;;;;6.60;0.97;;;23.10;99.90;;;;;;4929349;29;20463;-83
2023/08/02 13:58:00;;;;;;;1.53;0.90;;;23.10;99.90;;;;;;4923039;28;20824;-83
2023/08/02 14:00:27;;;;;;;4.50;0.90;;;23.10;99.90;;;;;;4926063;29;20491;-83
2023/08/02 14:02:54;;;;;;;5.30;1.07;;;23.10;99.90;;;;;;4926657;28;20476;-84
2023/08/02 14:05:21;;;;;;;1.00;0.83;;;23.10;99.90;;;;;;4923507;28;20492;-84
2023/08/02 14:07:48;;;;;;;2.03;0.80;;;23.10;99.90;;;;;;4933284;28;20973;-82
2023/08/02 14:10:15;;;;;;;1.83;0.93;;;23.10;99.90;;;;;;4938198;28;20526;-82
2023/08/02 14:12:42;;;;;;;1.70;1.07;;;23.10;99.90;;;;;;4934691;28;21371;-81
2023/08/02 14:15:10;;;;;;;2.70;0.90;;;23.10;99.90;;;;;;4932803;28;20490;-83
2023/08/02 14:17:37;;;;;;;2.20;0.77;;;23.10;99.90;;;;;;4938047;28;20884;-84
2023/08/02 14:20:04;;;;;;;2.43;0.80;;;23.10;99.90;;;;;;4934642;28;20567;-82
2023/08/02 14:22:33;;;;;;;1.73;0.90;;;23.10;99.90;;;;;;4936486;29;20471;-83
2023/08/02 14:25:00;;;;;;;1.80;1.00;;;23.10;99.90;;;;;;4931915;28;21022;-84
2023/08/02 14:27:27;;;;;;;3.10;1.00;;;23.10;99.90;;;;;;4935285;29;21069;-83
2023/08/02 14:29:54;;;;;;;1.00;0.80;;;23.00;99.90;;;;;;4930997;28;20461;-83
2023/08/02 14:32:22;;;;;;;1.10;0.80;;;23.10;99.90;;;;;;4935035;28;20467;-83
2023/08/02 14:34:48;;;;;;;1.07;0.70;;;23.10;99.90;;;;;;4935004;29;20461;-83
2023/08/02 14:37:15;;;;;;;1.30;0.73;;;23.10;99.90;;;;;;4933881;28;20468;-82
2023/08/02 14:39:42;;;;;;;2.23;1.00;;;23.10;99.90;;;;;;4935225;29;20453;-82
2023/08/02 14:42:09;;;;;;;1.63;0.90;;;23.00;99.90;;;;;;4934537;29;20475;-82
2023/08/02 14:44:36;;;;;;;1.30;0.97;;;23.00;99.90;;;;;;4930984;28;20497;-82
2023/08/02 14:47:03;;;;;;;1.50;1.00;;;23.00;99.90;;;;;;4934954;28;21010;-82
2023/08/02 14:49:32;;;;;;;1.50;1.00;;;23.00;99.90;;;;;;4936025;28;20450;-82
2023/08/02 14:51:59;;;;;;;1.57;1.03;;;23.00;99.90;;;;;;4932374;28;20479;-80
2023/08/02 14:54:25;;;;;;;3.40;1.10;;;23.00;99.90;;;;;;4932211;29;20462;-85
2023/08/02 14:56:52;;;;;;;4.70;1.57;;;23.00;99.90;;;;;;4935753;29;20472;-83
2023/08/02 14:59:19;;;;;;;1.07;0.90;;;23.00;99.90;;;;;;4927422;28;21043;-83
2023/08/02 15:01:46;;;;;;;4.13;1.40;;;23.00;99.90;;;;;;4932287;28;20475;-84
2023/08/02 15:04:12;;;;;;;2.53;1.20;;;23.00;99.90;;;;;;4931834;28;20467;-84
2023/08/02 15:06:41;;;;;;;1.73;0.90;;;23.00;99.90;;;;;;4930026;28;20867;-83
2023/08/02 15:09:07;;;;;;;6.10;1.10;;;23.00;99.90;;;;;;4932276;28;20469;-83
2023/08/02 15:11:34;;;;;;;1.40;1.10;;;23.00;99.90;;;;;;4931482;28;20464;-83
2023/08/02 15:14:02;;;;;;;2.77;1.50;;;23.00;99.90;;;;;;4933119;28;20476;-83
2023/08/02 15:16:28;;;;;;;2.20;1.17;;;23.00;99.90;;;;;;4929371;28;20466;-83
2023/08/02 15:18:55;;;;;;;2.10;1.10;;;22.90;99.90;;;;;;4931475;28;20502;-83
2023/08/02 15:21:22;;;;;;;2.83;1.30;;;22.90;99.90;;;;;;4936205;29;20496;-83
2023/08/02 15:23:51;;;;;;;2.70;1.00;;;22.90;99.90;;;;;;4932018;29;20451;-82
2023/08/02 15:26:18;;;;;;;2.53;1.13;;;22.90;99.90;;;;;;4931210;28;20490;-83
2023/08/02 15:28:45;;;;;;;1.40;1.00;;;22.90;99.90;;;;;;4931713;28;20470;-83
2023/08/02 15:31:11;;;;;;;2.80;1.40;;;22.90;99.90;;;;;;4929829;28;20492;-84
2023/08/02 15:33:41;;;;;;;2.50;1.20;;;22.90;99.90;;;;;;4929043;28;20887;-84
2023/08/02 15:36:08;;;;;;;4.63;1.23;;;22.90;99.90;;;;;;4932052;28;20954;-84
2023/08/02 15:38:36;;;;;;;3.27;1.40;;;22.90;99.90;;;;;;4934715;28;21021;-84
2023/08/02 15:41:04;;;;;;;1.40;1.27;;;22.90;99.90;;;;;;4927638;28;20555;-84
2023/08/02 15:43:30;;;;;;;1.77;1.40;;;22.90;99.90;;;;;;4925400;28;20463;-84
2023/08/02 15:45:58;;;;;;;2.53;1.30;;;22.90;99.90;;;;;;4924485;28;20494;-84
2023/08/02 15:48:25;;;;;;;3.23;1.50;;;22.90;99.90;;;;;;4926186;28;20475;-85
2023/08/02 15:50:52;;;;;;;1.60;1.27;;;22.90;99.90;;;;;;4925739;28;20844;-85
2023/08/02 15:53:18;;;;;;;1.60;1.17;;;22.80;99.90;;;;;;4927019;28;20481;-84
2023/08/02 15:55:45;;;;;;;2.00;1.27;;;22.80;99.90;;;;;;4926414;29;20470;-84
2023/08/02 15:58:13;;;;;;;2.77;1.37;;;22.80;99.90;;;;;;4931935;29;20473;-85
2023/08/02 16:00:40;;;;;;;2.70;1.10;;;22.80;99.90;;;;;;4927654;28;20494;-83
2023/08/02 16:03:07;;;;;;;2.20;1.50;;;22.80;99.90;;;;;;4926695;29;20463;-82
2023/08/02 16:05:33;;;;;;;1.60;1.37;;;22.80;99.90;;;;;;4927676;28;20514;-82
2023/08/02 16:08:00;;;;;;;1.70;1.13;;;22.80;99.90;;;;;;4926573;28;20915;-83
2023/08/02 16:10:27;;;;;;;3.13;1.20;;;22.80;99.90;;;;;;4926732;28;20470;-83
2023/08/02 16:12:54;;;;;;;2.20;1.13;;;22.80;99.90;;;;;;4927192;28;20442;-83
2023/08/02 16:15:22;;;;;;;1.57;1.10;;;22.80;99.90;;;;;;4928349;28;20477;-84
2023/08/02 16:17:49;;;;;;;2.73;1.60;;;22.80;99.90;;;;;;4929060;29;20815;-84
2023/08/02 16:20:16;;;;;;;2.83;1.70;;;22.80;99.90;;;;;;4928120;28;20491;-84
2023/08/02 16:22:43;;;;;;;3.07;1.10;;;22.70;99.90;;;;;;4929385;28;20486;-84
2023/08/02 16:25:10;;;;;;;1.30;1.10;;;22.70;99.90;;;;;;4927845;28;20474;-84
2023/08/02 16:27:37;;;;;;;1.63;1.10;;;22.70;99.90;;;;;;4928159;28;20467;-85
2023/08/02 16:30:04;;;;;;;4.43;1.27;;;22.70;99.90;;;;;;4924775;28;21072;-84
2023/08/02 16:32:32;;;;;;;2.20;1.50;;;22.70;99.90;;;;;;4935600;29;20961;-84
2023/08/02 16:34:59;;;;;;;2.60;1.53;;;22.70;99.90;;;;;;4932287;28;20465;-84
2023/08/02 16:37:26;;;;;;;1.90;1.30;;;22.70;99.90;;;;;;4929742;28;20463;-84
2023/08/02 16:39:53;;;;;;;1.77;1.10;;;22.70;99.90;;;;;;4926596;28;20471;-84
2023/08/02 16:42:19;;;;;;;2.87;1.17;;;22.70;99.90;;;;;;4931378;28;20853;-83
2023/08/02 16:44:46;;;;;;;1.97;1.33;;;22.70;99.90;;;;;;4930461;28;20988;-82
2023/08/02 16:47:13;;;;;;;2.20;1.07;;;22.70;99.90;;;;;;4925040;28;20501;-84
2023/08/02 16:49:41;;;;;;;2.23;1.33;;;22.70;99.90;;;;;;4925175;28;20461;-84
2023/08/02 16:52:08;;;;;;;5.53;1.50;;;22.70;99.90;;;;;;4924862;28;20490;-84
2023/08/02 16:54:35;;;;;;;1.57;1.07;;;22.70;99.90;;;;;;4927793;29;20480;-84
2023/08/02 16:57:02;;;;;;;1.50;1.20;;;22.70;99.90;;;;;;4925834;28;20459;-84
2023/08/02 16:59:28;;;;;;;2.40;1.20;;;22.60;99.90;;;;;;4927800;28;20470;-84
2023/08/02 17:01:55;;;;;;;4.80;1.30;;;22.60;99.90;;;;;;4928140;28;20466;-85
2023/08/02 17:04:22;;;;;;;1.50;1.10;;;22.60;99.90;;;;;;4931875;28;20470;-84
2023/08/02 17:06:50;;;;;;;1.80;1.00;;;22.60;99.90;;;;;;4927744;28;20497;-84
2023/08/02 17:09:17;;;;;;;3.57;1.40;;;22.60;99.90;;;;;;4926271;28;20471;-83
2023/08/02 17:11:44;;;;;;;3.17;1.53;;;22.60;99.90;;;;;;4927889;29;20451;-84
2023/08/02 17:14:10;;;;;;;1.37;1.10;;;22.60;99.90;;;;;;4923640;28;20466;-84
2023/08/02 17:16:37;;;;;;;1.80;1.20;;;22.60;99.90;;;;;;4925216;28;20946;-85
2023/08/02 17:19:04;;;;;;;1.60;1.27;;;22.60;99.90;;;;;;4927344;28;20494;-84
2023/08/02 17:21:34;;;;;;;2.03;1.10;;;22.60;99.90;;;;;;4925453;28;20473;-83
2023/08/02 17:24:02;;;;;;;3.87;1.57;;;22.60;99.90;;;;;;4925644;28;20815;-85
2023/08/02 17:26:29;;;;;;;3.20;1.53;;;22.60;99.90;;;;;;4927531;28;20501;-84
2023/08/02 17:28:56;;;;;;;1.60;1.47;;;22.60;99.90;;;;;;4927039;28;20576;-85
2023/08/02 17:31:23;;;;;;;1.33;1.00;;;22.60;99.90;;;;;;4928085;28;20498;-84
2023/08/02 17:33:50;;;;;;;1.40;1.20;;;22.60;99.90;;;;;;4933768;28;20477;-84
2023/08/02 17:36:17;;;;;;;3.17;1.50;;;22.50;99.90;;;;;;4930570;28;20468;-84
2023/08/02 17:38:44;;;;;;;1.73;1.30;;;22.50;99.90;;;;;;4929946;28;20463;-84
2023/08/02 17:41:12;;;;;;;1.90;1.27;;;22.50;99.90;;;;;;4931919;28;20470;-84
2023/08/02 17:43:38;;;;;;;1.40;1.03;;;22.50;99.90;;;;;;4934027;28;20477;-84
2023/08/02 17:46:05;;;;;;;1.77;1.10;;;22.50;99.90;;;;;;4933472;28;20482;-83
2023/08/02 17:48:32;;;;;;;1.50;1.30;;;22.50;99.90;;;;;;4932331;28;20489;-88
2023/08/02 17:51:00;;;;;;;1.83;1.40;;;22.50;99.90;;;;;;4932869;29;21099;-88
2023/08/02 17:53:29;;;;;;;3.33;1.40;;;22.50;99.90;;;;;;4931316;28;20473;-88
2023/08/02 17:55:57;;;;;;;1.43;1.10;;;22.50;99.90;;;;;;4930450;28;20932;-87
2023/08/02 17:58:27;;;;;;;1.80;1.40;;;22.50;99.90;;;;;;4930105;28;20466;-86
2023/08/02 18:00:56;;;;;;;3.07;1.10;;;22.50;99.90;;;;;;4931206;28;20477;-85
2023/08/02 18:03:23;;;;;;;1.30;1.07;;;22.50;99.90;;;;;;4933718;29;20492;-85
2023/08/02 18:05:52;;;;;;;1.67;1.00;;;22.50;99.90;;;;;;4931771;28;20884;-84
2023/08/02 18:08:18;;;;;;;1.27;1.17;;;22.50;99.90;;;;;;4933969;28;20920;-84
2023/08/02 18:10:45;;;;;;;2.80;1.80;;;22.50;99.90;;;;;;4934079;28;20471;-84
2023/08/02 18:13:12;;;;;;;1.60;1.13;;;22.50;99.90;;;;;;4933549;29;20463;-85
2023/08/02 18:15:40;;;;;;;2.33;1.20;;;22.50;99.90;;;;;;4926359;28;20459;-85
2023/08/02 18:18:07;;;;;;;2.20;1.10;;;22.50;99.90;;;;;;4932302;28;20454;-85
2023/08/02 18:20:35;;;;;;;1.83;1.20;;;22.50;99.90;;;;;;4931023;28;20474;-85
2023/08/02 18:23:02;;;;;;;2.47;1.67;;;22.50;99.90;;;;;;4931530;28;20553;-85
2023/08/02 18:25:28;;;;;;;1.13;1.00;;;22.50;99.90;;;;;;4930320;28;20467;-85
2023/08/02 18:27:55;;;;;;;1.50;1.30;;;22.50;99.90;;;;;;4934015;29;20496;-85
2023/08/02 18:30:22;;;;;;;2.30;1.30;;;22.50;99.90;;;;;;4927359;28;20557;-85
2023/08/02 18:32:50;;;;;;;1.33;1.10;;;22.50;99.90;;;;;;4927702;28;20462;-85
2023/08/02 18:35:17;;;;;;;1.93;1.43;;;22.50;99.90;;;;;;4924412;28;20466;-85
2023/08/02 18:37:44;;;;;;;1.27;1.07;;;22.50;99.90;;;;;;4929245;29;20459;-84
2023/08/02 18:40:11;;;;;;;1.37;1.17;;;22.50;99.90;;;;;;4928617;28;20444;-84
2023/08/02 18:42:38;;;;;;;2.27;1.37;;;22.50;99.90;;;;;;4929454;29;20458;-85
2023/08/02 18:45:06;;;;;;;1.30;0.90;;;22.60;99.90;;;;;;4927045;28;20982;-85
2023/08/02 18:47:33;;;;;;;1.70;1.40;;;22.50;99.90;;;;;;4928568;28;21012;-85
2023/08/02 18:50:01;;;;;;;2.07;1.17;;;22.50;99.90;;;;;;4931220;28;20965;-85
2023/08/02 18:52:28;;;;;;;1.43;1.23;;;22.50;99.90;;;;;;4929244;28;20462;-85
2023/08/02 18:54:55;;;;;;;3.10;1.73;;;22.50;99.90;;;;;;4928882;29;20882;-85
2023/08/02 18:57:22;;;;;;;1.60;1.10;;;22.50;99.90;;;;;;4927948;28;20953;-85
2023/08/02 18:59:48;;;;;;;1.40;1.00;;;22.50;99.90;;;;;;4927499;28;20959;-86
2023/08/02 19:02:15;;;;;;;1.50;1.20;;;22.60;99.90;;;;;;4929390;28;20468;-86
2023/08/02 19:04:42;;;;;;;1.23;1.07;;;22.50;99.90;;;;;;4932981;29;21052;-86
2023/08/02 19:07:10;;;;;;;1.50;1.03;;;22.50;99.90;;;;;;4930366;28;21013;-86
2023/08/02 19:09:37;;;;;;;1.80;1.50;;;22.60;99.90;;;;;;4930051;28;20999;-86
2023/08/02 19:12:14;;;;;;;1.70;1.33;;;22.60;99.90;;;;;;4926667;29;20840;-86
2023/08/02 19:14:45;;;;;;;1.40;1.30;;;22.60;99.90;;;;;;4927684;28;21292;-85
2023/08/02 19:17:13;;;;;;;2.27;1.10;;;22.60;99.90;;;;;;4928607;28;20493;-87
2023/08/02 19:19:40;;;;;;;1.20;1.00;;;22.60;99.90;;;;;;4927647;28;20841;-88
2023/08/02 19:22:12;;;;;;;1.40;1.20;;;22.60;99.90;;;;;;4929324;28;20465;-85
2023/08/02 19:24:40;;;;;;;1.50;0.90;;;22.60;99.90;;;;;;4931709;29;20509;-91
2023/08/02 19:27:12;;;;;;;1.97;1.10;;;22.60;99.90;;;;;;4932421;28;21012;-84
2023/08/02 19:29:39;;;;;;;1.20;1.10;;;22.60;99.90;;;;;;4930153;28;20453;-81
2023/08/02 19:32:09;;;;;;;1.70;1.60;;;22.60;99.90;;;;;;4932630;28;21047;-88
2023/08/02 19:34:38;;;;;;;1.67;0.90;;;22.60;99.90;;;;;;4933141;28;20466;-87
2023/08/02 19:37:06;;;;;;;1.37;1.00;;;22.60;99.90;;;;;;4928313;28;20957;-80
2023/08/02 19:39:34;;;;;;;4.93;1.03;;;22.60;99.90;;;;;;4930557;28;20830;-80
2023/08/02 19:42:01;;;;;;;1.00;0.90;;;22.60;99.90;;;;;;4925995;29;21048;-79
2023/08/02 19:44:28;;;;;;;3.73;1.20;;;22.70;99.90;;;;;;4926893;28;20470;-80
2023/08/02 19:46:55;;;;;;;1.40;0.90;;;22.60;99.90;;;;;;4921949;28;20842;-79
2023/08/02 19:49:22;;;;;;;5.73;1.63;;;22.60;99.90;;;;;;4927559;29;20473;-79
2023/08/02 19:51:50;;;;;;;3.53;1.70;;;22.60;99.90;;;;;;4928550;28;20926;-79
2023/08/02 19:54:22;;;;;;;2.17;1.10;;;22.60;99.90;;;;;;4929423;29;20466;-77
2023/08/02 19:56:51;;;;;;;2.40;1.03;;;22.60;99.90;;;;;;4924327;28;20791;-79
2023/08/02 19:59:18;;;;;;;2.97;1.30;;;22.60;99.90;;;;;;4926924;28;20510;-79
2023/08/02 20:01:54;;;;;;;4.17;1.20;;;22.60;99.90;;;;;;4927894;28;20466;-79
2023/08/02 20:04:21;;;;;;;1.30;1.17;;;22.60;99.90;;;;;;4930751;28;20471;-79
2023/08/02 20:06:47;;;;;;;1.80;1.10;;;22.60;99.90;;;;;;4926061;28;20499;-79
2023/08/02 20:09:14;;;;;;;2.20;1.40;;;22.60;99.90;;;;;;4929735;28;20463;-79
2023/08/02 20:11:41;;;;;;;1.40;0.87;;;22.60;99.90;;;;;;4930200;28;20912;-79
2023/08/02 20:14:19;;;;;;;1.83;1.20;;;22.60;99.90;;;;;;4929846;28;20545;-79
2023/08/02 20:16:46;;;;;;;1.50;1.17;;;22.60;99.90;;;;;;4929561;29;20467;-79
2023/08/02 20:19:14;;;;;;;1.40;1.30;;;22.60;99.90;;;;;;4927378;29;20572;-79
2023/08/02 20:21:44;;;;;;;2.63;1.20;;;22.60;99.90;;;;;;4925388;28;20469;-79
2023/08/02 20:24:16;;;;;;;3.10;0.90;;;22.60;99.90;;;;;;4925969;28;20462;-78
2023/08/02 20:26:44;;;;;;;1.80;1.03;;;22.60;99.90;;;;;;4927932;29;20478;-81
2023/08/02 20:29:12;;;;;;;1.77;0.93;;;22.60;99.90;;;;;;4929145;28;20462;-79
2023/08/02 20:31:44;;;;;;;1.83;0.90;;;22.60;99.90;;;;;;4930451;29;20470;-80
2023/08/02 20:34:12;;;;;;;2.13;1.20;;;22.60;99.90;;;;;;4929199;28;20553;-79
2023/08/02 20:36:40;;;;;;;1.67;0.90;;;22.60;99.90;;;;;;4932222;29;20458;-79
2023/08/02 20:39:09;;;;;;;1.47;1.10;;;22.60;99.90;;;;;;4930872;28;20471;-80
2023/08/02 20:41:39;;;;;;;2.50;1.00;;;22.60;99.90;;;;;;4931385;28;20516;-79
2023/08/02 20:44:10;;;;;;;2.30;1.20;;;22.60;99.90;;;;;;4928269;28;20467;-79
2023/08/02 20:46:37;;;;;;;1.30;1.20;;;22.60;99.90;;;;;;4929210;28;20458;-79
2023/08/02 20:49:06;;;;;;;2.17;1.20;;;22.60;99.90;;;;;;4930070;28;20474;-79
2023/08/02 20:51:33;;;;;;;1.53;1.40;;;22.60;99.90;;;;;;4931893;29;20472;-79
2023/08/02 20:54:02;;;;;;;1.47;1.07;;;22.60;99.90;;;;;;4929692;28;21037;-77
2023/08/02 20:56:29;;;;;;;2.53;1.43;;;22.50;99.90;;;;;;4926852;28;20462;-79
2023/08/02 20:58:56;;;;;;;1.50;1.17;;;22.50;99.90;;;;;;4928163;28;20614;-80
2023/08/02 21:01:22;;;;;;;1.20;0.93;;;22.50;99.90;;;;;;4932188;28;20946;-79
2023/08/02 21:03:50;;;;;;;2.17;1.10;;;22.50;99.90;;;;;;4927672;28;20470;-79
2023/08/02 21:06:18;;;;;;;1.17;0.90;;;22.50;99.90;;;;;;4924235;28;20508;-79
2023/08/02 21:08:46;;;;;;;1.60;1.23;;;22.50;99.90;;;;;;4927758;28;20957;-79
2023/08/02 21:11:13;;;;;;;1.63;1.20;;;22.50;99.90;;;;;;4928024;29;20493;-79